sensor_id;sensor_type;location;lat;lon;timestamp;P1;durP1;ratioP1;P2;durP2;ratioP2
11960;SDS011;6040;49.358;11.140;2024-02-26T00:02:10;3.43;;;3.00;;
11960;SDS011;6040;49.358;11.140;2024-02-26T00:04:37;4.83;;;3.00;;
11960;SDS011;6040;49.358;11.140;2024-02-26T00:07:03;5.90;;;3.33;;
11960;SDS011;6040;49.358;11.140;2024-02-26T00:09:30;4.70;;;3.20;;
11960;SDS011;6040;49.358;11.140;2024-02-26T00:12:03;4.80;;;3.70;;
11960;SDS011;6040;49.358;11.140;2024-02-26T00:14:30;7.23;;;3.40;;
11960;SDS011;6040;49.358;11.140;2024-02-26T00:16:57;5.70;;;3.30;;
11960;SDS011;6040;49.358;11.140;2024-02-26T00:19:25;6.20;;;3.70;;
11960;SDS011;6040;49.358;11.140;2024-02-26T00:21:52;5.53;;;3.80;;
11960;SDS011;6040;49.358;11.140;2024-02-26T00:24:20;8.53;;;3.93;;
11960;SDS011;6040;49.358;11.140;2024-02-26T00:26:47;8.53;;;3.80;;
11960;SDS011;6040;49.358;11.140;2024-02-26T00:29:18;5.93;;;3.70;;
11960;SDS011;6040;49.358;11.140;2024-02-26T00:31:44;4.83;;;3.70;;
11960;SDS011;6040;49.358;11.140;2024-02-26T00:34:11;7.13;;;4.37;;
11960;SDS011;6040;49.358;11.140;2024-02-26T00:36:39;6.97;;;3.93;;
11960;SDS011;6040;49.358;11.140;2024-02-26T00:39:06;6.90;;;4.27;;
11960;SDS011;6040;49.358;11.140;2024-02-26T00:41:37;7.23;;;4.60;;
11960;SDS011;6040;49.358;11.140;2024-02-26T00:44:04;7.97;;;4.17;;
11960;SDS011;6040;49.358;11.140;2024-02-26T00:46:31;7.20;;;4.37;;
11960;SDS011;6040;49.358;11.140;2024-02-26T00:48:58;6.33;;;4.07;;
11960;SDS011;6040;49.358;11.140;2024-02-26T00:51:25;9.07;;;4.80;;
11960;SDS011;6040;49.358;11.140;2024-02-26T00:53:53;9.00;;;4.63;;
11960;SDS011;6040;49.358;11.140;2024-02-26T00:56:21;8.90;;;4.83;;
11960;SDS011;6040;49.358;11.140;2024-02-26T00:58:47;8.00;;;4.67;;
11960;SDS011;6040;49.358;11.140;2024-02-26T01:01:14;6.23;;;4.23;;
11960;SDS011;6040;49.358;11.140;2024-02-26T01:03:41;7.77;;;4.10;;
11960;SDS011;6040;49.358;11.140;2024-02-26T01:06:08;7.10;;;4.53;;
11960;SDS011;6040;49.358;11.140;2024-02-26T01:08:35;9.17;;;4.47;;
11960;SDS011;6040;49.358;11.140;2024-02-26T01:11:04;7.17;;;3.87;;
11960;SDS011;6040;49.358;11.140;2024-02-26T01:13:31;10.63;;;5.17;;
11960;SDS011;6040;49.358;11.140;2024-02-26T01:15:58;9.40;;;5.07;;
11960;SDS011;6040;49.358;11.140;2024-02-26T01:18:25;11.10;;;5.07;;
11960;SDS011;6040;49.358;11.140;2024-02-26T01:20:54;9.70;;;5.77;;
11960;SDS011;6040;49.358;11.140;2024-02-26T01:23:21;9.30;;;5.60;;
11960;SDS011;6040;49.358;11.140;2024-02-26T01:25:48;10.50;;;5.97;;
11960;SDS011;6040;49.358;11.140;2024-02-26T01:28:17;12.43;;;5.83;;
11960;SDS011;6040;49.358;11.140;2024-02-26T01:30:43;11.80;;;6.10;;
11960;SDS011;6040;49.358;11.140;2024-02-26T01:33:10;9.00;;;5.67;;
11960;SDS011;6040;49.358;11.140;2024-02-26T01:35:37;11.17;;;7.00;;
11960;SDS011;6040;49.358;11.140;2024-02-26T01:38:04;9.17;;;6.27;;
11960;SDS011;6040;49.358;11.140;2024-02-26T01:40:31;13.37;;;5.97;;
11960;SDS011;6040;49.358;11.140;2024-02-26T01:42:58;10.87;;;6.73;;
11960;SDS011;6040;49.358;11.140;2024-02-26T01:45:27;14.50;;;7.93;;
11960;SDS011;6040;49.358;11.140;2024-02-26T01:47:54;13.87;;;7.93;;
11960;SDS011;6040;49.358;11.140;2024-02-26T01:50:21;11.77;;;6.93;;
11960;SDS011;6040;49.358;11.140;2024-02-26T01:52:49;16.40;;;7.73;;
11960;SDS011;6040;49.358;11.140;2024-02-26T01:55:17;15.83;;;7.93;;
11960;SDS011;6040;49.358;11.140;2024-02-26T01:57:45;12.77;;;7.53;;
11960;SDS011;6040;49.358;11.140;2024-02-26T02:00:14;15.10;;;8.20;;
11960;SDS011;6040;49.358;11.140;2024-02-26T02:02:43;14.23;;;7.90;;
11960;SDS011;6040;49.358;11.140;2024-02-26T02:05:11;14.53;;;6.87;;
11960;SDS011;6040;49.358;11.140;2024-02-26T02:17:47;16.00;;;7.17;;
11960;SDS011;6040;49.358;11.140;2024-02-26T02:20:15;12.53;;;6.87;;
11960;SDS011;6040;49.358;11.140;2024-02-26T02:22:44;13.87;;;7.20;;
11960;SDS011;6040;49.358;11.140;2024-02-26T02:25:12;17.33;;;6.83;;
11960;SDS011;6040;49.358;11.140;2024-02-26T02:27:39;15.10;;;7.37;;
11960;SDS011;6040;49.358;11.140;2024-02-26T02:30:07;12.07;;;7.00;;
11960;SDS011;6040;49.358;11.140;2024-02-26T02:32:34;10.33;;;6.43;;
11960;SDS011;6040;49.358;11.140;2024-02-26T02:35:03;10.97;;;6.90;;
11960;SDS011;6040;49.358;11.140;2024-02-26T02:37:31;14.90;;;6.57;;
11960;SDS011;6040;49.358;11.140;2024-02-26T02:39:59;13.37;;;6.90;;
11960;SDS011;6040;49.358;11.140;2024-02-26T02:42:26;12.93;;;6.70;;
11960;SDS011;6040;49.358;11.140;2024-02-26T02:44:53;14.90;;;7.27;;
11960;SDS011;6040;49.358;11.140;2024-02-26T02:47:19;13.20;;;7.37;;
11960;SDS011;6040;49.358;11.140;2024-02-26T02:49:46;13.00;;;7.50;;
11960;SDS011;6040;49.358;11.140;2024-02-26T02:52:13;10.73;;;6.80;;
11960;SDS011;6040;49.358;11.140;2024-02-26T02:54:40;10.47;;;6.33;;
11960;SDS011;6040;49.358;11.140;2024-02-26T02:57:08;11.57;;;7.13;;
11960;SDS011;6040;49.358;11.140;2024-02-26T02:59:35;16.27;;;7.40;;
11960;SDS011;6040;49.358;11.140;2024-02-26T03:02:02;13.73;;;6.83;;
11960;SDS011;6040;49.358;11.140;2024-02-26T03:04:29;9.93;;;6.10;;
11960;SDS011;6040;49.358;11.140;2024-02-26T03:06:56;13.03;;;6.33;;
11960;SDS011;6040;49.358;11.140;2024-02-26T03:09:23;14.13;;;6.87;;
11960;SDS011;6040;49.358;11.140;2024-02-26T03:11:50;10.90;;;6.13;;
11960;SDS011;6040;49.358;11.140;2024-02-26T03:14:18;8.90;;;6.03;;
11960;SDS011;6040;49.358;11.140;2024-02-26T03:16:45;11.37;;;6.40;;
11960;SDS011;6040;49.358;11.140;2024-02-26T03:19:14;13.33;;;6.43;;
11960;SDS011;6040;49.358;11.140;2024-02-26T03:21:41;14.67;;;7.37;;
11960;SDS011;6040;49.358;11.140;2024-02-26T03:24:08;10.10;;;6.03;;
11960;SDS011;6040;49.358;11.140;2024-02-26T03:26:35;14.43;;;6.13;;
11960;SDS011;6040;49.358;11.140;2024-02-26T03:29:02;12.07;;;6.43;;
11960;SDS011;6040;49.358;11.140;2024-02-26T03:31:30;11.27;;;5.97;;
11960;SDS011;6040;49.358;11.140;2024-02-26T03:33:57;14.93;;;6.07;;
11960;SDS011;6040;49.358;11.140;2024-02-26T03:36:24;13.13;;;6.10;;
11960;SDS011;6040;49.358;11.140;2024-02-26T03:38:51;10.37;;;5.57;;
11960;SDS011;6040;49.358;11.140;2024-02-26T03:41:18;13.77;;;6.60;;
11960;SDS011;6040;49.358;11.140;2024-02-26T03:43:45;12.67;;;6.10;;
11960;SDS011;6040;49.358;11.140;2024-02-26T03:46:12;10.13;;;5.93;;
11960;SDS011;6040;49.358;11.140;2024-02-26T03:58:46;14.30;;;6.07;;
11960;SDS011;6040;49.358;11.140;2024-02-26T04:01:13;9.00;;;5.67;;
11960;SDS011;6040;49.358;11.140;2024-02-26T04:03:40;11.33;;;6.00;;
11960;SDS011;6040;49.358;11.140;2024-02-26T04:06:08;11.13;;;5.70;;
11960;SDS011;6040;49.358;11.140;2024-02-26T04:08:36;12.37;;;5.60;;
11960;SDS011;6040;49.358;11.140;2024-02-26T04:11:03;8.80;;;5.43;;
11960;SDS011;6040;49.358;11.140;2024-02-26T04:13:32;9.87;;;5.53;;
11960;SDS011;6040;49.358;11.140;2024-02-26T04:16:00;9.40;;;5.73;;
11960;SDS011;6040;49.358;11.140;2024-02-26T04:18:27;9.20;;;5.70;;
11960;SDS011;6040;49.358;11.140;2024-02-26T04:20:54;8.47;;;5.20;;
11960;SDS011;6040;49.358;11.140;2024-02-26T04:23:22;10.73;;;6.13;;
11960;SDS011;6040;49.358;11.140;2024-02-26T04:25:48;11.30;;;5.73;;
11960;SDS011;6040;49.358;11.140;2024-02-26T04:28:15;11.67;;;5.43;;
11960;SDS011;6040;49.358;11.140;2024-02-26T04:30:42;9.23;;;5.37;;
11960;SDS011;6040;49.358;11.140;2024-02-26T04:33:10;8.97;;;4.83;;
11960;SDS011;6040;49.358;11.140;2024-02-26T04:35:37;11.03;;;5.60;;
11960;SDS011;6040;49.358;11.140;2024-02-26T04:38:04;9.17;;;5.13;;
11960;SDS011;6040;49.358;11.140;2024-02-26T04:40:31;11.23;;;5.70;;
11960;SDS011;6040;49.358;11.140;2024-02-26T04:42:57;9.60;;;5.33;;
11960;SDS011;6040;49.358;11.140;2024-02-26T04:45:24;9.33;;;5.50;;
11960;SDS011;6040;49.358;11.140;2024-02-26T04:47:51;9.40;;;5.03;;
11960;SDS011;6040;49.358;11.140;2024-02-26T04:50:19;8.70;;;5.50;;
11960;SDS011;6040;49.358;11.140;2024-02-26T04:52:46;11.10;;;5.53;;
11960;SDS011;6040;49.358;11.140;2024-02-26T04:55:13;7.93;;;5.10;;
11960;SDS011;6040;49.358;11.140;2024-02-26T04:57:39;9.77;;;5.20;;
11960;SDS011;6040;49.358;11.140;2024-02-26T05:00:07;10.60;;;6.03;;
11960;SDS011;6040;49.358;11.140;2024-02-26T05:02:35;10.67;;;5.90;;
11960;SDS011;6040;49.358;11.140;2024-02-26T05:05:03;9.10;;;5.60;;
11960;SDS011;6040;49.358;11.140;2024-02-26T05:07:32;9.03;;;6.07;;
11960;SDS011;6040;49.358;11.140;2024-02-26T05:09:58;7.40;;;5.60;;
11960;SDS011;6040;49.358;11.140;2024-02-26T05:12:25;10.07;;;5.17;;
11960;SDS011;6040;49.358;11.140;2024-02-26T05:14:52;12.90;;;5.80;;
11960;SDS011;6040;49.358;11.140;2024-02-26T05:17:19;9.67;;;5.30;;
11960;SDS011;6040;49.358;11.140;2024-02-26T05:19:46;7.83;;;5.17;;
11960;SDS011;6040;49.358;11.140;2024-02-26T05:22:12;10.27;;;5.87;;
11960;SDS011;6040;49.358;11.140;2024-02-26T05:24:42;9.63;;;5.40;;
11960;SDS011;6040;49.358;11.140;2024-02-26T05:27:08;10.57;;;5.37;;
11960;SDS011;6040;49.358;11.140;2024-02-26T05:29:35;8.97;;;5.23;;
11960;SDS011;6040;49.358;11.140;2024-02-26T05:32:02;9.20;;;5.47;;
11960;SDS011;6040;49.358;11.140;2024-02-26T05:37:24;8.10;;;5.20;;
11960;SDS011;6040;49.358;11.140;2024-02-26T05:39:53;8.67;;;5.20;;
11960;SDS011;6040;49.358;11.140;2024-02-26T05:42:19;10.67;;;6.13;;
11960;SDS011;6040;49.358;11.140;2024-02-26T05:44:46;9.83;;;5.90;;
11960;SDS011;6040;49.358;11.140;2024-02-26T05:47:13;9.57;;;5.50;;
11960;SDS011;6040;49.358;11.140;2024-02-26T05:49:40;9.73;;;5.77;;
11960;SDS011;6040;49.358;11.140;2024-02-26T05:52:07;12.60;;;7.80;;
11960;SDS011;6040;49.358;11.140;2024-02-26T05:54:34;10.67;;;6.90;;
11960;SDS011;6040;49.358;11.140;2024-02-26T05:57:02;10.93;;;6.53;;
11960;SDS011;6040;49.358;11.140;2024-02-26T05:59:29;8.17;;;5.37;;
11960;SDS011;6040;49.358;11.140;2024-02-26T06:01:56;11.17;;;5.47;;
11960;SDS011;6040;49.358;11.140;2024-02-26T06:04:23;9.23;;;5.10;;
11960;SDS011;6040;49.358;11.140;2024-02-26T06:06:49;10.97;;;5.17;;
11960;SDS011;6040;49.358;11.140;2024-02-26T06:09:16;7.77;;;5.30;;
11960;SDS011;6040;49.358;11.140;2024-02-26T06:11:43;9.33;;;5.20;;
11960;SDS011;6040;49.358;11.140;2024-02-26T06:14:11;10.03;;;5.73;;
11960;SDS011;6040;49.358;11.140;2024-02-26T06:16:39;8.83;;;5.50;;
11960;SDS011;6040;49.358;11.140;2024-02-26T06:19:06;8.13;;;5.30;;
11960;SDS011;6040;49.358;11.140;2024-02-26T06:21:33;8.33;;;5.47;;
11960;SDS011;6040;49.358;11.140;2024-02-26T06:24:00;10.70;;;5.67;;
11960;SDS011;6040;49.358;11.140;2024-02-26T06:26:27;9.40;;;4.80;;
11960;SDS011;6040;49.358;11.140;2024-02-26T06:28:54;6.37;;;4.70;;
11960;SDS011;6040;49.358;11.140;2024-02-26T06:31:22;7.43;;;4.57;;
11960;SDS011;6040;49.358;11.140;2024-02-26T06:33:49;8.53;;;4.77;;
11960;SDS011;6040;49.358;11.140;2024-02-26T06:36:16;9.93;;;4.77;;
11960;SDS011;6040;49.358;11.140;2024-02-26T06:38:43;7.33;;;4.60;;
11960;SDS011;6040;49.358;11.140;2024-02-26T06:41:10;5.57;;;4.00;;
11960;SDS011;6040;49.358;11.140;2024-02-26T06:43:37;7.80;;;4.67;;
11960;SDS011;6040;49.358;11.140;2024-02-26T06:46:04;6.37;;;4.13;;
11960;SDS011;6040;49.358;11.140;2024-02-26T06:48:33;8.93;;;4.30;;
11960;SDS011;6040;49.358;11.140;2024-02-26T06:51:01;12.33;;;4.27;;
11960;SDS011;6040;49.358;11.140;2024-02-26T06:53:29;7.77;;;4.23;;
11960;SDS011;6040;49.358;11.140;2024-02-26T06:55:56;8.03;;;5.30;;
11960;SDS011;6040;49.358;11.140;2024-02-26T06:58:22;6.40;;;4.40;;
11960;SDS011;6040;49.358;11.140;2024-02-26T07:00:49;8.83;;;5.00;;
11960;SDS011;6040;49.358;11.140;2024-02-26T07:03:16;8.00;;;4.60;;
11960;SDS011;6040;49.358;11.140;2024-02-26T07:05:44;9.63;;;4.63;;
11960;SDS011;6040;49.358;11.140;2024-02-26T07:08:11;8.73;;;5.03;;
11960;SDS011;6040;49.358;11.140;2024-02-26T07:10:38;6.63;;;4.60;;
11960;SDS011;6040;49.358;11.140;2024-02-26T07:13:05;5.73;;;4.20;;
11960;SDS011;6040;49.358;11.140;2024-02-26T07:15:31;5.33;;;4.20;;
11960;SDS011;6040;49.358;11.140;2024-02-26T07:17:59;7.27;;;4.43;;
11960;SDS011;6040;49.358;11.140;2024-02-26T07:20:28;8.00;;;5.50;;
11960;SDS011;6040;49.358;11.140;2024-02-26T07:22:57;7.30;;;5.43;;
11960;SDS011;6040;49.358;11.140;2024-02-26T07:25:23;8.50;;;4.93;;
11960;SDS011;6040;49.358;11.140;2024-02-26T07:27:50;7.53;;;4.73;;
11960;SDS011;6040;49.358;11.140;2024-02-26T07:30:17;8.70;;;5.77;;
11960;SDS011;6040;49.358;11.140;2024-02-26T07:32:44;8.17;;;5.67;;
11960;SDS011;6040;49.358;11.140;2024-02-26T07:35:11;9.80;;;6.20;;
11960;SDS011;6040;49.358;11.140;2024-02-26T07:37:38;9.50;;;6.23;;
11960;SDS011;6040;49.358;11.140;2024-02-26T07:40:06;9.47;;;5.97;;
11960;SDS011;6040;49.358;11.140;2024-02-26T07:42:34;7.57;;;5.13;;
11960;SDS011;6040;49.358;11.140;2024-02-26T07:45:01;8.57;;;6.10;;
11960;SDS011;6040;49.358;11.140;2024-02-26T07:47:29;7.57;;;5.47;;
11960;SDS011;6040;49.358;11.140;2024-02-26T07:49:56;6.73;;;4.20;;
11960;SDS011;6040;49.358;11.140;2024-02-26T07:52:23;6.10;;;5.37;;
11960;SDS011;6040;49.358;11.140;2024-02-26T07:54:50;9.87;;;4.47;;
11960;SDS011;6040;49.358;11.140;2024-02-26T07:57:18;5.57;;;3.70;;
11960;SDS011;6040;49.358;11.140;2024-02-26T07:59:46;5.30;;;3.73;;
11960;SDS011;6040;49.358;11.140;2024-02-26T08:02:14;5.93;;;3.27;;
11960;SDS011;6040;49.358;11.140;2024-02-26T08:04:41;3.87;;;3.00;;
11960;SDS011;6040;49.358;11.140;2024-02-26T08:07:08;4.30;;;3.40;;
11960;SDS011;6040;49.358;11.140;2024-02-26T08:09:35;5.67;;;3.63;;
11960;SDS011;6040;49.358;11.140;2024-02-26T08:12:02;5.90;;;3.33;;
11960;SDS011;6040;49.358;11.140;2024-02-26T08:14:30;6.77;;;3.50;;
11960;SDS011;6040;49.358;11.140;2024-02-26T08:16:58;4.63;;;3.40;;
11960;SDS011;6040;49.358;11.140;2024-02-26T08:19:25;5.20;;;3.73;;
11960;SDS011;6040;49.358;11.140;2024-02-26T08:21:53;7.87;;;3.80;;
11960;SDS011;6040;49.358;11.140;2024-02-26T08:24:19;5.87;;;4.10;;
11960;SDS011;6040;49.358;11.140;2024-02-26T08:26:46;7.27;;;4.30;;
11960;SDS011;6040;49.358;11.140;2024-02-26T08:29:13;5.90;;;4.47;;
11960;SDS011;6040;49.358;11.140;2024-02-26T08:31:41;5.00;;;4.30;;
11960;SDS011;6040;49.358;11.140;2024-02-26T08:34:09;10.07;;;4.53;;
11960;SDS011;6040;49.358;11.140;2024-02-26T08:36:35;6.13;;;4.07;;
11960;SDS011;6040;49.358;11.140;2024-02-26T08:39:02;4.73;;;3.67;;
11960;SDS011;6040;49.358;11.140;2024-02-26T08:41:29;4.67;;;3.27;;
11960;SDS011;6040;49.358;11.140;2024-02-26T08:43:56;4.47;;;2.97;;
11960;SDS011;6040;49.358;11.140;2024-02-26T08:46:24;5.27;;;2.93;;
11960;SDS011;6040;49.358;11.140;2024-02-26T08:48:52;3.77;;;2.97;;
11960;SDS011;6040;49.358;11.140;2024-02-26T08:51:18;3.40;;;2.80;;
11960;SDS011;6040;49.358;11.140;2024-02-26T08:53:45;4.07;;;2.63;;
11960;SDS011;6040;49.358;11.140;2024-02-26T08:56:12;8.20;;;3.00;;
11960;SDS011;6040;49.358;11.140;2024-02-26T08:58:41;3.70;;;2.70;;
11960;SDS011;6040;49.358;11.140;2024-02-26T09:01:08;3.00;;;2.47;;
11960;SDS011;6040;49.358;11.140;2024-02-26T09:03:34;4.53;;;2.63;;
11960;SDS011;6040;49.358;11.140;2024-02-26T09:06:02;3.77;;;2.60;;
11960;SDS011;6040;49.358;11.140;2024-02-26T09:08:31;3.27;;;2.30;;
11960;SDS011;6040;49.358;11.140;2024-02-26T09:10:57;6.63;;;2.73;;
11960;SDS011;6040;49.358;11.140;2024-02-26T09:13:25;3.20;;;2.50;;
11960;SDS011;6040;49.358;11.140;2024-02-26T09:15:51;6.57;;;2.20;;
11960;SDS011;6040;49.358;11.140;2024-02-26T09:18:19;3.47;;;2.53;;
11960;SDS011;6040;49.358;11.140;2024-02-26T09:20:46;3.60;;;2.40;;
11960;SDS011;6040;49.358;11.140;2024-02-26T09:23:14;3.07;;;2.60;;
11960;SDS011;6040;49.358;11.140;2024-02-26T09:25:41;3.00;;;2.60;;
11960;SDS011;6040;49.358;11.140;2024-02-26T09:28:08;3.83;;;2.57;;
11960;SDS011;6040;49.358;11.140;2024-02-26T09:30:35;4.30;;;2.70;;
11960;SDS011;6040;49.358;11.140;2024-02-26T09:33:01;4.40;;;2.93;;
11960;SDS011;6040;49.358;11.140;2024-02-26T09:35:28;3.43;;;2.73;;
11960;SDS011;6040;49.358;11.140;2024-02-26T09:37:56;5.00;;;3.07;;
11960;SDS011;6040;49.358;11.140;2024-02-26T09:40:24;5.17;;;3.13;;
11960;SDS011;6040;49.358;11.140;2024-02-26T09:42:53;3.33;;;2.77;;
11960;SDS011;6040;49.358;11.140;2024-02-26T09:45:26;4.83;;;3.67;;
11960;SDS011;6040;49.358;11.140;2024-02-26T09:47:55;4.77;;;3.67;;
11960;SDS011;6040;49.358;11.140;2024-02-26T09:50:22;4.87;;;3.20;;
11960;SDS011;6040;49.358;11.140;2024-02-26T09:52:49;5.60;;;3.47;;
11960;SDS011;6040;49.358;11.140;2024-02-26T09:55:17;4.20;;;3.20;;
11960;SDS011;6040;49.358;11.140;2024-02-26T09:57:46;6.40;;;2.90;;
11960;SDS011;6040;49.358;11.140;2024-02-26T10:00:15;3.60;;;2.63;;
11960;SDS011;6040;49.358;11.140;2024-02-26T10:02:45;4.77;;;2.90;;
11960;SDS011;6040;49.358;11.140;2024-02-26T10:05:14;6.40;;;3.13;;
11960;SDS011;6040;49.358;11.140;2024-02-26T10:07:44;3.23;;;2.70;;
11960;SDS011;6040;49.358;11.140;2024-02-26T10:10:11;6.03;;;2.43;;
11960;SDS011;6040;49.358;11.140;2024-02-26T10:12:38;3.97;;;2.83;;
11960;SDS011;6040;49.358;11.140;2024-02-26T10:15:07;4.57;;;2.57;;
11960;SDS011;6040;49.358;11.140;2024-02-26T10:17:34;8.57;;;2.80;;
11960;SDS011;6040;49.358;11.140;2024-02-26T10:20:12;4.17;;;2.93;;
11960;SDS011;6040;49.358;11.140;2024-02-26T10:22:41;3.63;;;2.50;;
11960;SDS011;6040;49.358;11.140;2024-02-26T10:25:08;4.00;;;2.70;;
11960;SDS011;6040;49.358;11.140;2024-02-26T10:27:35;4.13;;;3.10;;
11960;SDS011;6040;49.358;11.140;2024-02-26T10:30:02;2.97;;;2.43;;
11960;SDS011;6040;49.358;11.140;2024-02-26T10:32:31;4.40;;;3.10;;
11960;SDS011;6040;49.358;11.140;2024-02-26T10:34:58;4.30;;;2.60;;
11960;SDS011;6040;49.358;11.140;2024-02-26T10:37:25;5.07;;;2.60;;
11960;SDS011;6040;49.358;11.140;2024-02-26T10:39:52;3.90;;;2.90;;
11960;SDS011;6040;49.358;11.140;2024-02-26T10:42:19;4.13;;;3.10;;
11960;SDS011;6040;49.358;11.140;2024-02-26T10:44:46;4.33;;;3.17;;
11960;SDS011;6040;49.358;11.140;2024-02-26T10:47:14;4.27;;;2.90;;
11960;SDS011;6040;49.358;11.140;2024-02-26T10:49:46;4.90;;;3.00;;
11960;SDS011;6040;49.358;11.140;2024-02-26T10:52:14;6.13;;;3.60;;
11960;SDS011;6040;49.358;11.140;2024-02-26T10:54:41;5.07;;;3.40;;
11960;SDS011;6040;49.358;11.140;2024-02-26T10:57:12;5.20;;;4.00;;
11960;SDS011;6040;49.358;11.140;2024-02-26T10:59:40;4.70;;;3.17;;
11960;SDS011;6040;49.358;11.140;2024-02-26T11:02:08;8.50;;;5.30;;
11960;SDS011;6040;49.358;11.140;2024-02-26T11:04:36;6.60;;;4.57;;
11960;SDS011;6040;49.358;11.140;2024-02-26T11:07:06;6.27;;;4.50;;
11960;SDS011;6040;49.358;11.140;2024-02-26T11:09:35;6.20;;;4.03;;
11960;SDS011;6040;49.358;11.140;2024-02-26T11:12:07;4.77;;;3.90;;
11960;SDS011;6040;49.358;11.140;2024-02-26T11:14:38;5.90;;;4.20;;
11960;SDS011;6040;49.358;11.140;2024-02-26T11:17:06;5.57;;;4.47;;
11960;SDS011;6040;49.358;11.140;2024-02-26T11:19:35;4.13;;;3.03;;
11960;SDS011;6040;49.358;11.140;2024-02-26T11:22:05;4.73;;;3.60;;
11960;SDS011;6040;49.358;11.140;2024-02-26T11:24:33;3.77;;;3.33;;
11960;SDS011;6040;49.358;11.140;2024-02-26T11:27:05;5.57;;;3.83;;
11960;SDS011;6040;49.358;11.140;2024-02-26T11:29:37;5.03;;;3.70;;
11960;SDS011;6040;49.358;11.140;2024-02-26T11:32:06;4.87;;;3.40;;
11960;SDS011;6040;49.358;11.140;2024-02-26T11:34:33;4.17;;;3.30;;
11960;SDS011;6040;49.358;11.140;2024-02-26T11:37:09;4.27;;;2.83;;
11960;SDS011;6040;49.358;11.140;2024-02-26T11:39:37;3.57;;;2.83;;
11960;SDS011;6040;49.358;11.140;2024-02-26T11:42:05;3.50;;;3.20;;
11960;SDS011;6040;49.358;11.140;2024-02-26T11:44:33;4.00;;;2.80;;
11960;SDS011;6040;49.358;11.140;2024-02-26T11:47:09;4.67;;;3.00;;
11960;SDS011;6040;49.358;11.140;2024-02-26T11:49:36;3.20;;;2.67;;
11960;SDS011;6040;49.358;11.140;2024-02-26T11:52:04;5.03;;;2.90;;
11960;SDS011;6040;49.358;11.140;2024-02-26T11:54:43;3.73;;;2.60;;
11960;SDS011;6040;49.358;11.140;2024-02-26T11:57:20;6.63;;;4.70;;
11960;SDS011;6040;49.358;11.140;2024-02-26T11:59:48;6.93;;;5.20;;
11960;SDS011;6040;49.358;11.140;2024-02-26T12:05:09;12.10;;;8.53;;
11960;SDS011;6040;49.358;11.140;2024-02-26T12:07:43;9.80;;;7.30;;
11960;SDS011;6040;49.358;11.140;2024-02-26T12:10:17;7.50;;;5.80;;
11960;SDS011;6040;49.358;11.140;2024-02-26T12:12:52;4.43;;;3.20;;
11960;SDS011;6040;49.358;11.140;2024-02-26T12:15:22;4.00;;;2.90;;
11960;SDS011;6040;49.358;11.140;2024-02-26T12:17:49;3.40;;;3.10;;
11960;SDS011;6040;49.358;11.140;2024-02-26T12:20:17;3.77;;;2.97;;
11960;SDS011;6040;49.358;11.140;2024-02-26T12:22:46;4.27;;;3.77;;
11960;SDS011;6040;49.358;11.140;2024-02-26T12:25:13;4.93;;;3.03;;
11960;SDS011;6040;49.358;11.140;2024-02-26T12:27:41;3.50;;;2.50;;
11960;SDS011;6040;49.358;11.140;2024-02-26T12:30:09;2.80;;;2.60;;
11960;SDS011;6040;49.358;11.140;2024-02-26T12:32:36;3.43;;;2.57;;
11960;SDS011;6040;49.358;11.140;2024-02-26T12:35:03;4.33;;;2.53;;
11960;SDS011;6040;49.358;11.140;2024-02-26T12:37:32;2.53;;;2.33;;
11960;SDS011;6040;49.358;11.140;2024-02-26T12:40:01;4.30;;;2.57;;
11960;SDS011;6040;49.358;11.140;2024-02-26T12:42:29;2.70;;;2.20;;
11960;SDS011;6040;49.358;11.140;2024-02-26T12:44:58;2.70;;;1.97;;
11960;SDS011;6040;49.358;11.140;2024-02-26T12:47:25;2.20;;;1.90;;
11960;SDS011;6040;49.358;11.140;2024-02-26T12:49:52;3.60;;;1.80;;
11960;SDS011;6040;49.358;11.140;2024-02-26T12:52:19;2.77;;;2.10;;
11960;SDS011;6040;49.358;11.140;2024-02-26T12:54:46;2.13;;;1.93;;
11960;SDS011;6040;49.358;11.140;2024-02-26T12:57:13;2.63;;;2.07;;
11960;SDS011;6040;49.358;11.140;2024-02-26T12:59:41;1.80;;;1.70;;
11960;SDS011;6040;49.358;11.140;2024-02-26T13:02:09;3.03;;;1.90;;
11960;SDS011;6040;49.358;11.140;2024-02-26T13:04:37;3.20;;;2.23;;
11960;SDS011;6040;49.358;11.140;2024-02-26T13:07:05;3.97;;;2.70;;
11960;SDS011;6040;49.358;11.140;2024-02-26T13:09:32;2.90;;;2.60;;
11960;SDS011;6040;49.358;11.140;2024-02-26T13:12:00;4.53;;;2.37;;
11960;SDS011;6040;49.358;11.140;2024-02-26T13:14:29;2.10;;;1.90;;
11960;SDS011;6040;49.358;11.140;2024-02-26T13:16:59;2.47;;;2.00;;
11960;SDS011;6040;49.358;11.140;2024-02-26T13:19:27;2.73;;;2.30;;
11960;SDS011;6040;49.358;11.140;2024-02-26T13:21:54;2.40;;;2.17;;
11960;SDS011;6040;49.358;11.140;2024-02-26T13:24:21;3.00;;;1.93;;
11960;SDS011;6040;49.358;11.140;2024-02-26T13:26:53;2.50;;;2.00;;
11960;SDS011;6040;49.358;11.140;2024-02-26T13:29:21;2.97;;;2.17;;
11960;SDS011;6040;49.358;11.140;2024-02-26T13:31:47;2.83;;;1.70;;
11960;SDS011;6040;49.358;11.140;2024-02-26T13:34:25;2.20;;;2.00;;
11960;SDS011;6040;49.358;11.140;2024-02-26T13:36:55;2.20;;;1.90;;
11960;SDS011;6040;49.358;11.140;2024-02-26T13:39:23;1.90;;;1.70;;
11960;SDS011;6040;49.358;11.140;2024-02-26T13:41:50;3.27;;;2.03;;
11960;SDS011;6040;49.358;11.140;2024-02-26T13:44:17;2.40;;;1.90;;
11960;SDS011;6040;49.358;11.140;2024-02-26T13:46:45;2.47;;;1.70;;
11960;SDS011;6040;49.358;11.140;2024-02-26T13:49:12;3.57;;;2.10;;
11960;SDS011;6040;49.358;11.140;2024-02-26T13:51:40;2.50;;;1.73;;
11960;SDS011;6040;49.358;11.140;2024-02-26T13:54:07;2.67;;;2.10;;
11960;SDS011;6040;49.358;11.140;2024-02-26T13:56:35;1.90;;;1.77;;
11960;SDS011;6040;49.358;11.140;2024-02-26T13:59:02;1.67;;;1.57;;
11960;SDS011;6040;49.358;11.140;2024-02-26T14:01:30;2.30;;;1.80;;
11960;SDS011;6040;49.358;11.140;2024-02-26T14:03:58;3.77;;;2.20;;
11960;SDS011;6040;49.358;11.140;2024-02-26T14:06:27;4.30;;;2.30;;
11960;SDS011;6040;49.358;11.140;2024-02-26T14:08:55;3.23;;;2.20;;
11960;SDS011;6040;49.358;11.140;2024-02-26T14:11:22;3.57;;;2.43;;
11960;SDS011;6040;49.358;11.140;2024-02-26T14:13:50;4.43;;;2.33;;
11960;SDS011;6040;49.358;11.140;2024-02-26T14:16:17;2.47;;;2.27;;
11960;SDS011;6040;49.358;11.140;2024-02-26T14:18:45;3.80;;;3.10;;
11960;SDS011;6040;49.358;11.140;2024-02-26T14:21:12;3.77;;;2.60;;
11960;SDS011;6040;49.358;11.140;2024-02-26T14:23:39;3.10;;;2.50;;
11960;SDS011;6040;49.358;11.140;2024-02-26T14:26:08;2.80;;;2.13;;
11960;SDS011;6040;49.358;11.140;2024-02-26T14:28:35;2.20;;;2.00;;
11960;SDS011;6040;49.358;11.140;2024-02-26T14:31:03;3.73;;;2.40;;
11960;SDS011;6040;49.358;11.140;2024-02-26T14:33:32;4.13;;;2.97;;
11960;SDS011;6040;49.358;11.140;2024-02-26T14:35:59;4.30;;;2.90;;
11960;SDS011;6040;49.358;11.140;2024-02-26T14:38:26;4.70;;;2.50;;
11960;SDS011;6040;49.358;11.140;2024-02-26T14:40:52;6.67;;;2.87;;
11960;SDS011;6040;49.358;11.140;2024-02-26T14:43:21;4.80;;;3.30;;
11960;SDS011;6040;49.358;11.140;2024-02-26T14:45:47;4.00;;;2.57;;
11960;SDS011;6040;49.358;11.140;2024-02-26T14:48:14;3.37;;;2.53;;
11960;SDS011;6040;49.358;11.140;2024-02-26T14:50:41;3.07;;;2.73;;
11960;SDS011;6040;49.358;11.140;2024-02-26T14:53:08;2.77;;;2.47;;
11960;SDS011;6040;49.358;11.140;2024-02-26T14:55:34;2.77;;;2.33;;
11960;SDS011;6040;49.358;11.140;2024-02-26T14:58:01;2.47;;;2.10;;
11960;SDS011;6040;49.358;11.140;2024-02-26T15:00:29;3.13;;;2.13;;
11960;SDS011;6040;49.358;11.140;2024-02-26T15:02:59;4.07;;;2.17;;
11960;SDS011;6040;49.358;11.140;2024-02-26T15:05:25;3.20;;;2.37;;
11960;SDS011;6040;49.358;11.140;2024-02-26T15:07:52;3.07;;;2.10;;
11960;SDS011;6040;49.358;11.140;2024-02-26T15:10:19;2.20;;;2.00;;
11960;SDS011;6040;49.358;11.140;2024-02-26T15:12:46;2.37;;;2.17;;
11960;SDS011;6040;49.358;11.140;2024-02-26T15:15:13;2.97;;;2.10;;